createdAt,value
2019-02-11T00:01:11.994Z,1.30
2019-02-11T00:04:15.424Z,1.30
2019-02-11T00:07:18.856Z,1.43
2019-02-11T00:10:22.283Z,1.23
2019-02-11T00:13:25.719Z,1.10
2019-02-11T00:16:29.256Z,1.00
2019-02-11T00:19:32.682Z,1.00
2019-02-11T00:22:36.088Z,1.13
2019-02-11T00:25:39.538Z,1.07
2019-02-11T00:28:42.968Z,1.10
2019-02-11T00:31:46.380Z,1.50
2019-02-11T00:34:49.800Z,1.30
2019-02-11T00:37:53.204Z,1.20
2019-02-11T00:40:56.661Z,1.90
2019-02-11T00:44:00.099Z,2.20
2019-02-11T00:47:03.519Z,1.93
2019-02-11T00:50:09.800Z,1.20
2019-02-11T00:53:13.256Z,1.50
2019-02-11T00:56:16.693Z,1.70
2019-02-11T00:59:21.073Z,1.90
2019-02-11T01:02:24.607Z,1.80
2019-02-11T01:05:28.052Z,1.77
2019-02-11T01:08:31.474Z,2.10
2019-02-11T01:11:34.913Z,1.73
2019-02-11T01:14:56.426Z,1.70
2019-02-11T01:17:59.851Z,1.80
2019-02-11T01:21:03.277Z,1.80
2019-02-11T01:24:06.704Z,1.90
2019-02-11T01:27:10.137Z,2.20
2019-02-11T01:30:13.556Z,2.30
2019-02-11T01:33:16.991Z,2.10
2019-02-11T01:36:20.444Z,2.30
2019-02-11T01:39:23.864Z,2.00
2019-02-11T01:42:27.300Z,3.13
2019-02-11T01:45:30.727Z,2.57
2019-02-11T01:48:34.136Z,2.60
2019-02-11T01:51:37.569Z,2.77
2019-02-11T01:54:40.985Z,5.10
2019-02-11T01:57:44.437Z,3.00
2019-02-11T02:00:47.867Z,4.40
2019-02-11T02:03:51.276Z,3.30
2019-02-11T02:06:54.716Z,3.30
2019-02-11T02:09:58.157Z,3.93
2019-02-11T02:13:01.607Z,3.87
2019-02-11T02:16:05.037Z,3.60
2019-02-11T02:19:08.488Z,3.47
2019-02-11T02:22:11.920Z,4.20
2019-02-11T02:25:15.357Z,4.37
2019-02-11T02:28:18.796Z,4.30
2019-02-11T02:31:22.234Z,3.33
2019-02-11T02:34:25.664Z,4.67
2019-02-11T02:37:29.140Z,6.40
2019-02-11T02:40:32.585Z,5.70
2019-02-11T02:43:35.992Z,7.37
2019-02-11T02:46:39.440Z,5.87
2019-02-11T02:49:42.853Z,8.17
2019-02-11T02:52:46.280Z,7.77
2019-02-11T02:55:49.728Z,8.20
2019-02-11T02:58:53.149Z,7.23
2019-02-11T03:01:56.600Z,9.40
2019-02-11T03:05:00.033Z,10.93
2019-02-11T03:08:03.479Z,8.73
2019-02-11T03:11:06.893Z,9.10
2019-02-11T03:14:10.337Z,8.83
2019-02-11T03:17:13.760Z,11.40
2019-02-11T03:20:17.194Z,8.73
2019-02-11T03:23:20.621Z,11.00
2019-02-11T03:26:24.072Z,10.40
2019-02-11T03:29:27.516Z,10.87
2019-02-11T03:32:30.935Z,9.47
2019-02-11T03:35:34.384Z,9.40
2019-02-11T03:38:37.805Z,8.37
2019-02-11T03:41:41.244Z,8.87
2019-02-11T03:44:44.650Z,8.23
2019-02-11T03:47:48.085Z,9.20
2019-02-11T03:50:51.492Z,11.03
2019-02-11T03:53:55.012Z,8.53
2019-02-11T03:56:58.457Z,12.90
2019-02-11T04:00:01.893Z,10.00
2019-02-11T04:03:05.328Z,13.00
2019-02-11T04:06:08.793Z,10.00
2019-02-11T04:09:12.201Z,12.80
2019-02-11T04:12:15.644Z,14.77
2019-02-11T04:15:19.104Z,10.07
2019-02-11T04:18:22.521Z,12.23
2019-02-11T04:21:25.963Z,11.33
2019-02-11T04:24:29.397Z,7.23
2019-02-11T04:27:32.815Z,6.60
2019-02-11T04:30:36.244Z,7.23
2019-02-11T04:33:39.669Z,6.50
2019-02-11T04:36:43.108Z,5.37
2019-02-11T04:39:46.545Z,7.73
2019-02-11T04:42:49.959Z,7.50
2019-02-11T04:45:53.389Z,8.80
2019-02-11T04:48:56.809Z,5.50
2019-02-11T04:52:00.257Z,6.63
2019-02-11T04:55:04.157Z,9.37
2019-02-11T04:58:07.608Z,5.70
2019-02-11T05:01:11.053Z,5.27
2019-02-11T05:04:14.462Z,9.63
2019-02-11T05:07:17.973Z,5.80
2019-02-11T05:10:21.389Z,7.53
2019-02-11T05:13:24.829Z,6.30
2019-02-11T05:16:28.264Z,11.93
2019-02-11T05:19:31.701Z,6.33
2019-02-11T05:22:35.114Z,8.73
2019-02-11T05:25:38.574Z,4.93
2019-02-11T05:28:41.983Z,8.27
2019-02-11T05:31:45.427Z,10.03
2019-02-11T05:34:48.861Z,6.87
2019-02-11T05:37:52.296Z,8.47
2019-02-11T05:40:55.720Z,9.50
2019-02-11T05:43:59.160Z,7.53
2019-02-11T05:47:02.575Z,5.90
2019-02-11T05:50:09.018Z,10.73
2019-02-11T05:53:12.426Z,9.70
2019-02-11T05:56:15.865Z,7.53
2019-02-11T05:59:19.305Z,7.77
2019-02-11T06:02:23.120Z,6.97
2019-02-11T06:05:26.552Z,8.80
2019-02-11T06:08:30.010Z,8.40
2019-02-11T06:11:33.464Z,8.30
2019-02-11T06:14:36.874Z,5.57
2019-02-11T06:17:40.323Z,18.63
2019-02-11T06:20:43.773Z,12.43
2019-02-11T06:23:47.211Z,15.10
2019-02-11T06:26:50.648Z,12.97
2019-02-11T06:29:54.078Z,9.00
2019-02-11T06:32:57.557Z,8.93
2019-02-11T06:36:01.017Z,8.60
2019-02-11T06:39:05.107Z,5.37
2019-02-11T06:42:08.514Z,9.33
2019-02-11T06:45:13.438Z,3.27
2019-02-11T06:48:17.004Z,6.70
2019-02-11T06:51:20.440Z,5.17
2019-02-11T06:54:23.857Z,3.90
2019-02-11T06:57:27.301Z,5.60
2019-02-11T07:00:30.712Z,7.63
2019-02-11T07:03:34.165Z,8.77
2019-02-11T07:06:37.620Z,4.57
2019-02-11T07:09:41.060Z,3.27
2019-02-11T07:12:44.477Z,8.13
2019-02-11T07:15:47.901Z,7.97
2019-02-11T07:18:51.348Z,3.13
2019-02-11T07:21:54.777Z,10.93
2019-02-11T07:24:58.215Z,7.30
2019-02-11T07:28:01.641Z,6.43
2019-02-11T07:31:05.081Z,7.60
2019-02-11T07:34:08.485Z,5.27
2019-02-11T07:37:11.953Z,3.33
2019-02-11T07:40:15.368Z,8.00
2019-02-11T07:43:20.441Z,4.60
2019-02-11T07:46:25.495Z,5.67
2019-02-11T07:49:28.952Z,4.03
2019-02-11T07:52:32.384Z,6.63
2019-02-11T07:55:35.829Z,3.93
2019-02-11T07:58:39.247Z,6.13
2019-02-11T08:01:42.781Z,8.53
2019-02-11T08:04:46.180Z,7.27
2019-02-11T08:07:49.633Z,4.60
2019-02-11T08:10:53.042Z,5.13
2019-02-11T08:13:56.484Z,6.70
2019-02-11T08:16:59.896Z,6.13
2019-02-11T08:20:05.592Z,7.47
2019-02-11T08:23:13.161Z,6.50
2019-02-11T08:26:14.161Z,6.10
2019-02-11T08:29:17.583Z,8.87
2019-02-11T08:32:21.092Z,4.43
2019-02-11T08:35:24.507Z,8.63
2019-02-11T08:38:27.976Z,6.67
2019-02-11T08:41:31.387Z,4.23
2019-02-11T08:44:34.858Z,7.20
2019-02-11T08:47:38.263Z,7.33
2019-02-11T08:50:41.709Z,6.47
2019-02-11T08:53:45.128Z,11.43
2019-02-11T08:56:48.564Z,6.40
2019-02-11T08:59:52.024Z,8.73
2019-02-11T09:02:55.462Z,10.03
2019-02-11T09:05:58.877Z,11.87
2019-02-11T09:09:02.406Z,7.17
2019-02-11T09:12:05.818Z,6.30
2019-02-11T09:15:11.513Z,5.53
2019-02-11T09:18:14.966Z,4.80
2019-02-11T09:21:18.405Z,7.40
2019-02-11T09:24:21.809Z,8.03
2019-02-11T09:27:25.256Z,7.73
2019-02-11T09:30:28.673Z,5.57
2019-02-11T09:33:32.120Z,8.57
2019-02-11T09:36:35.548Z,7.60
2019-02-11T09:39:38.988Z,5.80
2019-02-11T09:42:42.419Z,10.30
2019-02-11T09:45:45.873Z,6.80
2019-02-11T09:48:49.353Z,5.97
2019-02-11T09:51:53.368Z,7.47
2019-02-11T09:54:56.785Z,8.07
2019-02-11T09:58:00.226Z,6.60
2019-02-11T10:01:03.905Z,3.80
2019-02-11T10:04:07.360Z,7.50
2019-02-11T10:07:10.806Z,4.07
2019-02-11T10:10:14.487Z,9.30
2019-02-11T10:13:17.932Z,3.40
2019-02-11T10:16:22.327Z,5.60
2019-02-11T10:19:25.760Z,5.40
2019-02-11T10:22:29.228Z,7.37
2019-02-11T10:25:32.660Z,3.83
2019-02-11T10:28:36.097Z,3.73
2019-02-11T10:31:39.525Z,4.07
2019-02-11T10:34:42.947Z,4.37
2019-02-11T10:37:46.688Z,3.20
2019-02-11T10:40:50.144Z,3.77
2019-02-11T10:43:53.576Z,4.50
2019-02-11T10:46:57.044Z,5.40
2019-02-11T10:50:00.469Z,3.93
2019-02-11T10:53:03.929Z,5.47
2019-02-11T10:56:07.342Z,3.67
2019-02-11T10:59:10.793Z,3.97
2019-02-11T11:02:14.318Z,7.17
2019-02-11T11:05:17.797Z,4.73
2019-02-11T11:08:21.236Z,3.70
2019-02-11T11:11:24.650Z,5.50
2019-02-11T11:14:28.095Z,7.63
2019-02-11T11:17:31.503Z,5.23
2019-02-11T11:20:35.014Z,6.37
2019-02-11T11:23:38.445Z,5.53
2019-02-11T11:26:41.888Z,10.70
2019-02-11T11:29:45.307Z,5.70
2019-02-11T11:32:48.745Z,8.60
2019-02-11T11:35:52.154Z,5.83
2019-02-11T11:38:55.617Z,7.27
2019-02-11T11:41:59.032Z,6.67
2019-02-11T11:45:02.492Z,5.97
2019-02-11T11:48:05.966Z,4.07
2019-02-11T11:51:09.413Z,12.53
2019-02-11T11:54:12.823Z,8.70
2019-02-11T11:57:16.269Z,8.30
2019-02-11T12:00:25.389Z,6.77
2019-02-11T12:03:28.889Z,6.60
2019-02-11T12:06:32.302Z,7.43
2019-02-11T12:09:35.759Z,7.77
2019-02-11T12:12:39.173Z,9.80
2019-02-11T12:15:42.620Z,8.47
2019-02-11T12:18:46.033Z,7.37
2019-02-11T12:21:49.514Z,4.83
2019-02-11T12:24:52.983Z,6.23
2019-02-11T12:27:56.503Z,4.20
2019-02-11T12:30:59.955Z,10.43
2019-02-11T12:34:03.399Z,5.43
2019-02-11T12:37:09.372Z,8.90
2019-02-11T12:40:12.593Z,5.83
2019-02-11T12:43:16.087Z,5.93
2019-02-11T12:46:19.517Z,4.97
2019-02-11T12:49:22.953Z,3.07
2019-02-11T12:52:26.397Z,4.27
2019-02-11T12:55:29.910Z,4.20
2019-02-11T12:58:33.403Z,2.73
2019-02-11T13:01:36.905Z,4.70
2019-02-11T13:04:40.321Z,3.83
2019-02-11T13:07:43.759Z,5.63
2019-02-11T13:10:47.179Z,5.00
2019-02-11T13:13:50.638Z,5.67
2019-02-11T13:16:54.133Z,5.40
2019-02-11T13:20:08.216Z,8.97
2019-02-11T13:23:02.749Z,10.70
2019-02-11T13:26:07.134Z,8.87
2019-02-11T13:29:10.661Z,7.70
2019-02-11T13:32:14.085Z,9.90
2019-02-11T13:35:17.724Z,7.80
2019-02-11T13:38:21.398Z,7.43
2019-02-11T13:41:24.835Z,8.97
2019-02-11T13:44:28.332Z,9.73
2019-02-11T13:47:31.782Z,11.83
2019-02-11T13:50:35.227Z,7.27
2019-02-11T13:53:43.219Z,9.30
2019-02-11T13:56:43.839Z,14.83
2019-02-11T13:59:47.349Z,6.47
2019-02-11T14:02:53.527Z,6.43
2019-02-11T14:05:57.037Z,4.47
2019-02-11T14:09:00.475Z,7.07
2019-02-11T14:12:03.885Z,5.23
2019-02-11T14:15:07.415Z,7.53
2019-02-11T14:18:14.226Z,5.40
2019-02-11T14:21:16.560Z,8.07
2019-02-11T14:24:20.141Z,6.33
2019-02-11T14:27:24.146Z,6.33
2019-02-11T14:30:27.624Z,5.87
2019-02-11T14:33:31.070Z,6.17
2019-02-11T14:36:34.477Z,8.23
2019-02-11T14:39:37.944Z,11.63
2019-02-11T14:42:41.352Z,6.33
2019-02-11T14:45:44.931Z,8.10
2019-02-11T14:48:48.400Z,7.93
2019-02-11T14:51:51.852Z,8.33
2019-02-11T14:54:55.253Z,5.73
2019-02-11T14:57:58.705Z,8.43
2019-02-11T15:01:02.109Z,5.97
2019-02-11T15:04:05.551Z,6.40
2019-02-11T15:07:09.056Z,8.00
2019-02-11T15:10:13.237Z,9.60
2019-02-11T15:13:16.649Z,9.97
2019-02-11T15:16:20.097Z,9.40
2019-02-11T15:19:23.528Z,8.13
2019-02-11T15:22:28.092Z,8.13
2019-02-11T15:25:31.581Z,7.43
2019-02-11T15:28:35.053Z,7.37
2019-02-11T15:31:38.473Z,10.03
2019-02-11T15:34:41.933Z,9.03
2019-02-11T15:37:45.357Z,6.97
2019-02-11T15:40:48.801Z,8.00
2019-02-11T15:43:52.213Z,7.43
2019-02-11T15:46:55.663Z,7.63
2019-02-11T15:49:59.082Z,10.40
2019-02-11T15:53:02.537Z,5.87
2019-02-11T15:56:07.895Z,6.43
2019-02-11T15:59:11.110Z,6.10
2019-02-11T16:02:14.528Z,8.77
2019-02-11T16:05:17.993Z,10.20
2019-02-11T16:08:21.409Z,9.17
2019-02-11T16:11:24.857Z,10.30
2019-02-11T16:14:28.291Z,9.30
2019-02-11T16:17:31.752Z,16.40
2019-02-11T16:20:35.249Z,13.73
2019-02-11T16:23:38.689Z,11.70
2019-02-11T16:26:42.157Z,9.30
2019-02-11T16:29:45.621Z,8.83
2019-02-11T16:32:49.042Z,10.17
2019-02-11T16:35:52.496Z,10.67
2019-02-11T16:38:55.917Z,10.30
2019-02-11T16:42:00.925Z,11.20
2019-02-11T16:45:05.599Z,13.70
2019-02-11T16:48:09.309Z,11.80
2019-02-11T16:51:12.725Z,7.93
2019-02-11T16:54:16.170Z,9.67
2019-02-11T16:57:19.585Z,12.73
2019-02-11T17:00:23.110Z,13.17
2019-02-11T17:03:26.537Z,13.83
2019-02-11T17:06:29.961Z,10.03
2019-02-11T17:09:33.505Z,12.10
2019-02-11T17:12:37.065Z,9.17
2019-02-11T17:15:40.513Z,13.33
2019-02-11T17:18:44.821Z,8.33
2019-02-11T17:21:48.269Z,7.10
2019-02-11T17:24:51.685Z,12.43
2019-02-11T17:27:55.141Z,9.13
2019-02-11T17:30:58.636Z,13.23
2019-02-11T17:34:02.098Z,13.80
2019-02-11T17:37:05.641Z,9.83
2019-02-11T17:40:13.700Z,16.33
2019-02-11T17:43:17.133Z,11.23
2019-02-11T17:46:20.569Z,11.70
2019-02-11T17:49:23.985Z,14.83
2019-02-11T17:52:28.802Z,10.63
2019-02-11T17:55:32.192Z,11.20
2019-02-11T17:58:35.641Z,10.83
2019-02-11T18:01:39.059Z,10.47
2019-02-11T18:04:42.497Z,14.70
2019-02-11T18:07:45.955Z,14.50
2019-02-11T18:10:49.366Z,12.93
2019-02-11T18:13:52.868Z,13.70
2019-02-11T18:16:56.332Z,6.77
2019-02-11T18:19:59.752Z,11.20
2019-02-11T18:23:03.225Z,12.40
2019-02-11T18:26:06.666Z,7.23
2019-02-11T18:29:10.093Z,10.00
2019-02-11T18:32:13.546Z,14.70
2019-02-11T18:35:18.708Z,14.63
2019-02-11T18:38:22.156Z,7.87
2019-02-11T18:41:25.593Z,10.37
2019-02-11T18:44:29.066Z,10.57
2019-02-11T18:47:32.490Z,11.40
2019-02-11T18:50:35.927Z,12.47
2019-02-11T18:53:39.377Z,8.53
2019-02-11T18:56:42.792Z,12.50
2019-02-11T18:59:46.241Z,11.03
2019-02-11T19:02:49.930Z,11.80
2019-02-11T19:05:53.381Z,9.73
2019-02-11T19:08:56.814Z,9.07
2019-02-11T19:12:00.261Z,9.97
2019-02-11T19:15:05.050Z,9.03
2019-02-11T19:18:08.485Z,9.73
2019-02-11T19:21:11.932Z,12.97
2019-02-11T19:24:15.369Z,16.00
2019-02-11T19:27:18.842Z,13.87
2019-02-11T19:30:26.741Z,9.13
2019-02-11T19:33:30.192Z,10.70
2019-02-11T19:36:33.629Z,11.83
2019-02-11T19:39:37.051Z,16.07
2019-02-11T19:42:40.513Z,12.57
2019-02-11T19:45:43.925Z,9.73
2019-02-11T19:48:47.357Z,9.10
2019-02-11T19:51:50.813Z,11.90
2019-02-11T19:54:54.408Z,7.97
2019-02-11T19:57:57.861Z,9.63
2019-02-11T20:01:01.273Z,9.43
2019-02-11T20:04:07.569Z,9.83
2019-02-11T20:07:09.881Z,9.33
2019-02-11T20:10:21.403Z,8.23
2019-02-11T20:13:24.857Z,15.40
2019-02-11T20:16:28.269Z,11.17
2019-02-11T20:19:31.709Z,7.80
2019-02-11T20:22:35.157Z,11.03
2019-02-11T20:25:38.573Z,10.03
2019-02-11T20:28:42.005Z,12.43
2019-02-11T20:31:45.444Z,10.73
2019-02-11T20:34:48.892Z,10.70
2019-02-11T20:37:52.339Z,11.93
2019-02-11T20:40:55.765Z,8.43
2019-02-11T20:43:59.181Z,13.70
2019-02-11T20:47:02.628Z,11.37
2019-02-11T20:50:10.461Z,10.30
2019-02-11T20:53:12.991Z,12.53
2019-02-11T20:56:16.436Z,10.73
2019-02-11T20:59:20.052Z,8.50
2019-02-11T21:02:23.486Z,12.63
2019-02-11T21:05:30.401Z,10.40
2019-02-11T21:08:33.829Z,10.73
2019-02-11T21:11:37.241Z,9.97
2019-02-11T21:14:41.156Z,11.00
2019-02-11T21:17:44.776Z,7.17
2019-02-11T21:20:49.854Z,9.13
2019-02-11T21:23:53.253Z,8.77
2019-02-11T21:26:56.829Z,8.60
2019-02-11T21:30:00.312Z,7.67
2019-02-11T21:33:03.901Z,8.23
2019-02-11T21:36:07.361Z,5.30
2019-02-11T21:39:10.816Z,5.67
2019-02-11T21:42:16.502Z,5.33
2019-02-11T21:45:21.253Z,9.57
2019-02-11T21:48:24.706Z,4.67
2019-02-11T21:51:28.219Z,6.93
2019-02-11T21:54:31.749Z,5.03
2019-02-11T21:57:36.610Z,3.93
2019-02-11T22:00:40.013Z,4.07
2019-02-11T22:03:43.522Z,3.63
2019-02-11T22:06:46.957Z,2.37
2019-02-11T22:09:50.505Z,6.20
2019-02-11T22:12:53.995Z,4.50
2019-02-11T22:15:57.496Z,7.43
2019-02-11T22:19:00.915Z,7.00
2019-02-11T22:22:04.346Z,6.33
2019-02-11T22:25:11.017Z,6.70
2019-02-11T22:28:14.462Z,6.13
2019-02-11T22:31:21.058Z,5.40
2019-02-11T22:34:24.515Z,7.53
2019-02-11T22:37:27.989Z,3.27
2019-02-11T22:40:33.214Z,4.27
2019-02-11T22:43:36.697Z,6.10
2019-02-11T22:46:40.145Z,8.90
2019-02-11T22:49:43.580Z,6.90
2019-02-11T22:52:47.024Z,5.83
2019-02-11T22:55:50.464Z,6.20
2019-02-11T22:58:53.877Z,6.20
2019-02-11T23:01:57.389Z,5.73
2019-02-11T23:05:00.802Z,6.97
2019-02-11T23:08:04.328Z,4.87
2019-02-11T23:11:07.740Z,9.03
2019-02-11T23:14:11.178Z,11.63
2019-02-11T23:17:14.601Z,6.27
2019-02-11T23:20:18.076Z,7.10
2019-02-11T23:23:21.504Z,5.17
2019-02-11T23:26:24.930Z,7.47
2019-02-11T23:29:28.353Z,6.03
2019-02-11T23:32:31.802Z,7.33
2019-02-11T23:35:35.212Z,3.70
2019-02-11T23:38:38.661Z,6.53
2019-02-11T23:41:42.136Z,6.27
2019-02-11T23:44:45.566Z,6.53
2019-02-11T23:47:49.002Z,5.30
2019-02-11T23:51:00.109Z,8.53
2019-02-11T23:53:57.590Z,7.43
2019-02-11T23:57:01.029Z,6.93
